createdAt,value
2024-02-10T00:01:48.681Z,6.25
2024-02-10T00:04:17.886Z,10.43
2024-02-10T00:06:47.228Z,6.43
2024-02-10T00:09:14.511Z,8.20
2024-02-10T00:11:42.879Z,9.25
2024-02-10T00:14:12.346Z,8.32
2024-02-10T00:16:39.635Z,9.75
2024-02-10T00:19:12.858Z,11.10
2024-02-10T00:21:42.625Z,8.10
2024-02-10T00:24:09.546Z,5.60
2024-02-10T00:26:36.556Z,7.60
2024-02-10T00:29:04.046Z,7.13
2024-02-10T00:31:31.780Z,10.35
2024-02-10T00:33:59.471Z,8.33
2024-02-10T00:36:26.865Z,13.43
2024-02-10T00:38:55.412Z,9.32
2024-02-10T00:41:22.392Z,7.03
2024-02-10T00:43:51.838Z,8.48
2024-02-10T00:46:19.053Z,9.37
2024-02-10T00:48:49.398Z,10.25
2024-02-10T00:51:16.746Z,9.38
2024-02-10T00:53:44.083Z,7.65
2024-02-10T00:56:13.119Z,9.32
2024-02-10T00:58:44.398Z,9.10
2024-02-10T01:01:14.053Z,9.30
2024-02-10T01:03:46.539Z,9.77
2024-02-10T01:06:14.224Z,9.85
2024-02-10T01:08:47.969Z,6.75
2024-02-10T01:11:16.502Z,7.70
2024-02-10T01:13:45.218Z,9.00
2024-02-10T01:16:13.165Z,7.20
2024-02-10T01:18:41.095Z,7.88
2024-02-10T01:21:12.124Z,8.15
2024-02-10T01:23:43.852Z,8.73
2024-02-10T01:26:11.348Z,8.95
2024-02-10T01:28:39.843Z,8.00
2024-02-10T01:31:10.205Z,9.48
2024-02-10T01:33:37.158Z,6.97
2024-02-10T01:36:10.395Z,11.97
2024-02-10T01:38:46.579Z,9.90
2024-02-10T01:41:14.728Z,7.93
2024-02-10T01:43:43.892Z,7.60
2024-02-10T01:46:12.022Z,9.70
2024-02-10T01:48:39.166Z,6.57
2024-02-10T01:51:06.548Z,5.90
2024-02-10T01:53:33.710Z,6.30
2024-02-10T01:56:01.447Z,6.88
2024-02-10T01:58:28.723Z,6.40
2024-02-10T02:00:58.086Z,8.03
2024-02-10T02:03:28.183Z,8.48
2024-02-10T02:05:55.554Z,8.18
2024-02-10T02:08:22.802Z,7.25
2024-02-10T02:10:49.888Z,7.80
2024-02-10T02:13:23.016Z,5.43
2024-02-10T02:15:49.991Z,7.25
2024-02-10T02:18:18.511Z,9.63
2024-02-10T02:20:49.595Z,6.35
2024-02-10T02:23:21.096Z,6.43
2024-02-10T02:25:51.614Z,7.23
2024-02-10T02:28:19.011Z,7.60
2024-02-10T02:30:46.379Z,7.97
2024-02-10T02:33:13.292Z,8.00
2024-02-10T02:35:41.396Z,8.45
2024-02-10T02:38:08.386Z,7.20
2024-02-10T02:40:36.756Z,9.52
2024-02-10T02:43:04.705Z,8.07
2024-02-10T02:45:31.769Z,8.00
2024-02-10T02:48:05.289Z,6.78
2024-02-10T02:50:32.753Z,8.57
2024-02-10T02:53:03.391Z,6.53
2024-02-10T02:55:30.735Z,8.68
2024-02-10T02:58:04.238Z,6.97
2024-02-10T03:00:33.380Z,8.48
2024-02-10T03:03:04.381Z,6.80
2024-02-10T03:05:31.547Z,7.63
2024-02-10T03:07:58.714Z,6.68
2024-02-10T03:10:25.925Z,8.70
2024-02-10T03:12:52.936Z,6.50
2024-02-10T03:15:21.348Z,7.73
2024-02-10T03:17:51.161Z,6.68
2024-02-10T03:20:22.796Z,6.57
2024-02-10T03:23:03.695Z,6.25
2024-02-10T03:25:31.547Z,7.82
2024-02-10T03:27:58.932Z,6.43
2024-02-10T03:30:27.257Z,7.10
2024-02-10T03:32:57.748Z,7.25
2024-02-10T03:35:26.181Z,5.25
2024-02-10T03:37:53.424Z,7.43
2024-02-10T03:40:20.864Z,6.07
2024-02-10T03:42:47.944Z,6.60
2024-02-10T03:45:19.752Z,8.68
2024-02-10T03:47:52.138Z,6.47
2024-02-10T03:50:19.402Z,6.43
2024-02-10T03:52:47.451Z,7.40
2024-02-10T03:55:16.615Z,6.97
2024-02-10T03:57:43.577Z,6.55
2024-02-10T04:00:12.291Z,7.78
2024-02-10T04:02:39.605Z,6.75
2024-02-10T04:05:09.533Z,8.57
2024-02-10T04:07:37.215Z,7.13
2024-02-10T04:10:05.601Z,9.98
2024-02-10T04:12:34.186Z,8.25
2024-02-10T04:15:05.270Z,7.43
2024-02-10T04:17:32.454Z,7.23
2024-02-10T04:20:02.593Z,7.38
2024-02-10T04:22:31.110Z,9.05
2024-02-10T04:24:59.199Z,5.90
2024-02-10T04:27:26.502Z,6.65
2024-02-10T04:29:53.674Z,7.87
2024-02-10T04:32:20.736Z,7.55
2024-02-10T04:34:47.808Z,8.13
2024-02-10T04:37:17.160Z,6.90
2024-02-10T04:39:45.477Z,8.35
2024-02-10T04:42:12.394Z,7.67
2024-02-10T04:44:39.826Z,7.28
2024-02-10T04:47:06.736Z,6.63
2024-02-10T04:49:34.530Z,7.60
2024-02-10T04:52:02.969Z,7.05
2024-02-10T04:54:30.042Z,6.50
2024-02-10T04:57:00.297Z,6.85
2024-02-10T04:59:27.997Z,6.32
2024-02-10T05:01:57.259Z,6.10
2024-02-10T05:04:24.492Z,7.05
2024-02-10T05:06:51.547Z,7.03
2024-02-10T05:09:18.532Z,6.75
2024-02-10T05:11:45.482Z,8.10
2024-02-10T05:14:15.096Z,8.18
2024-02-10T05:16:42.018Z,8.55
2024-02-10T05:19:09.133Z,7.97
2024-02-10T05:21:38.939Z,7.20
2024-02-10T05:24:16.033Z,9.15
2024-02-10T05:26:43.876Z,8.73
2024-02-10T05:29:15.677Z,8.55
2024-02-10T05:31:44.325Z,8.30
2024-02-10T05:34:17.236Z,7.40
2024-02-10T05:36:44.182Z,7.15
2024-02-10T05:39:11.098Z,7.22
2024-02-10T05:41:38.729Z,7.93
2024-02-10T05:44:05.568Z,7.07
2024-02-10T05:46:33.526Z,7.75
2024-02-10T05:49:02.117Z,7.50
2024-02-10T05:51:29.093Z,7.13
2024-02-10T05:53:58.019Z,7.85
2024-02-10T05:56:30.420Z,8.27
2024-02-10T05:58:57.412Z,8.38
2024-02-10T06:01:25.357Z,6.35
2024-02-10T06:03:53.761Z,8.43
2024-02-10T06:06:22.231Z,7.43
2024-02-10T06:08:49.431Z,7.90
2024-02-10T06:11:17.979Z,6.88
2024-02-10T06:13:49.319Z,8.32
2024-02-10T06:16:16.306Z,8.57
2024-02-10T06:18:43.484Z,10.52
2024-02-10T06:21:10.490Z,10.33
2024-02-10T06:23:41.303Z,11.32
2024-02-10T06:26:12.376Z,10.77
2024-02-10T06:28:40.512Z,11.57
2024-02-10T06:31:12.348Z,10.48
2024-02-10T06:33:39.626Z,11.07
2024-02-10T06:36:06.881Z,11.52
2024-02-10T06:38:34.114Z,9.10
2024-02-10T06:41:03.288Z,8.45
2024-02-10T06:43:33.091Z,12.73
2024-02-10T06:46:02.266Z,25.23
2024-02-10T06:48:29.339Z,14.52
2024-02-10T06:50:56.278Z,26.30
2024-02-10T06:53:24.744Z,32.60
2024-02-10T06:55:52.833Z,22.77
2024-02-10T06:58:23.337Z,9.77
2024-02-10T07:00:50.516Z,17.17
2024-02-10T07:03:19.276Z,14.32
2024-02-10T07:05:51.277Z,11.90
2024-02-10T07:08:18.676Z,11.45
2024-02-10T07:10:46.173Z,11.40
2024-02-10T07:13:13.132Z,9.60
2024-02-10T07:15:41.915Z,10.90
2024-02-10T07:18:10.740Z,14.15
2024-02-10T07:20:37.863Z,12.43
2024-02-10T07:23:06.238Z,11.07
2024-02-10T07:25:34.890Z,10.88
2024-02-10T07:28:02.764Z,7.88
2024-02-10T07:30:30.682Z,8.68
2024-02-10T07:33:04.942Z,9.70
2024-02-10T07:35:33.625Z,9.60
2024-02-10T07:38:02.165Z,8.43
2024-02-10T07:40:29.170Z,89.30
2024-02-10T07:42:56.154Z,84.18
2024-02-10T07:45:24.518Z,27.92
2024-02-10T07:47:51.522Z,9.57
2024-02-10T07:50:21.995Z,7.35
2024-02-10T07:52:49.306Z,9.05
2024-02-10T07:55:16.928Z,8.82
2024-02-10T07:57:44.004Z,7.70
2024-02-10T08:00:11.216Z,7.20
2024-02-10T08:02:38.612Z,7.30
2024-02-10T08:05:06.508Z,10.40
2024-02-10T08:07:35.105Z,8.70
2024-02-10T08:10:02.540Z,10.80
2024-02-10T08:12:31.391Z,8.97
2024-02-10T08:14:58.664Z,9.80
2024-02-10T08:17:27.518Z,8.80
2024-02-10T08:19:58.707Z,7.28
2024-02-10T08:22:26.076Z,9.52
2024-02-10T08:24:57.307Z,9.33
2024-02-10T08:27:27.347Z,7.90
2024-02-10T08:29:54.881Z,9.90
2024-02-10T08:32:22.209Z,9.88
2024-02-10T08:34:52.429Z,9.00
2024-02-10T08:37:20.961Z,8.80
2024-02-10T08:39:50.026Z,9.02
2024-02-10T08:42:24.273Z,10.63
2024-02-10T08:44:51.126Z,22.88
2024-02-10T08:47:19.037Z,10.82
2024-02-10T08:49:46.525Z,8.40
2024-02-10T08:52:23.277Z,15.55
2024-02-10T08:54:52.404Z,9.40
2024-02-10T08:57:21.091Z,6.72
2024-02-10T08:59:50.361Z,8.48
2024-02-10T09:02:22.302Z,10.17
2024-02-10T09:04:51.102Z,10.40
2024-02-10T09:07:20.560Z,7.47
2024-02-10T09:09:47.803Z,9.00
2024-02-10T09:12:16.041Z,8.27
2024-02-10T09:14:43.346Z,9.60
2024-02-10T09:17:11.815Z,9.15
2024-02-10T09:19:38.931Z,8.45
2024-02-10T09:22:07.617Z,7.88
2024-02-10T09:24:36.175Z,7.45
2024-02-10T09:27:05.891Z,8.63
2024-02-10T09:29:33.218Z,10.75
2024-02-10T09:32:01.847Z,10.82
2024-02-10T09:34:33.315Z,9.07
2024-02-10T09:37:00.730Z,11.98
2024-02-10T09:39:28.620Z,7.70
2024-02-10T09:42:04.181Z,8.70
2024-02-10T09:44:33.474Z,9.18
2024-02-10T09:47:01.967Z,9.20
2024-02-10T09:49:31.293Z,8.43
2024-02-10T09:52:00.401Z,7.23
2024-02-10T09:54:27.738Z,19.25
2024-02-10T09:56:57.012Z,18.13
2024-02-10T09:59:28.237Z,14.95
2024-02-10T10:01:55.780Z,13.52
2024-02-10T10:04:23.519Z,10.70
2024-02-10T10:06:52.396Z,12.05
2024-02-10T10:09:20.604Z,11.52
2024-02-10T10:11:49.714Z,9.63
2024-02-10T10:14:18.518Z,8.38
2024-02-10T10:16:54.389Z,10.17
2024-02-10T10:19:21.852Z,11.52
2024-02-10T10:21:50.204Z,9.00
2024-02-10T10:24:18.540Z,10.00
2024-02-10T10:26:47.310Z,9.52
2024-02-10T10:29:14.871Z,11.53
2024-02-10T10:31:44.382Z,13.63
2024-02-10T10:34:12.558Z,8.07
2024-02-10T10:36:41.294Z,12.43
2024-02-10T10:39:08.214Z,8.32
2024-02-10T10:41:40.011Z,9.33
2024-02-10T10:44:08.183Z,10.65
2024-02-10T10:46:36.366Z,8.45
2024-02-10T10:49:03.960Z,9.40
2024-02-10T10:51:32.606Z,10.32
2024-02-10T10:54:01.135Z,7.67
2024-02-10T10:56:33.060Z,11.52
2024-02-10T10:59:03.086Z,8.77
2024-02-10T11:01:31.167Z,9.23
2024-02-10T11:04:01.028Z,7.93
2024-02-10T11:06:29.081Z,8.03
2024-02-10T11:08:56.269Z,8.02
2024-02-10T11:11:23.458Z,12.38
2024-02-10T11:13:50.850Z,12.82
2024-02-10T11:16:21.132Z,10.02
2024-02-10T11:18:58.495Z,9.30
2024-02-10T11:21:31.483Z,9.95
2024-02-10T11:23:59.671Z,10.20
2024-02-10T11:26:27.835Z,9.27
2024-02-10T11:29:01.591Z,8.13
2024-02-10T11:31:30.154Z,10.97
2024-02-10T11:34:02.307Z,11.35
2024-02-10T11:36:29.843Z,10.82
2024-02-10T11:38:56.889Z,7.00
2024-02-10T11:41:24.509Z,11.50
2024-02-10T11:43:52.044Z,9.30
2024-02-10T11:46:19.012Z,7.78
2024-02-10T11:48:47.735Z,9.20
2024-02-10T11:51:15.301Z,9.95
2024-02-10T11:53:46.145Z,11.05
2024-02-10T11:56:13.418Z,10.77
2024-02-10T11:58:40.381Z,8.88
2024-02-10T12:01:07.800Z,6.93
2024-02-10T12:03:35.231Z,11.98
2024-02-10T12:06:04.789Z,9.27
2024-02-10T12:08:33.456Z,11.00
2024-02-10T12:11:01.053Z,14.75
2024-02-10T12:13:28.753Z,14.43
2024-02-10T12:15:59.855Z,11.48
2024-02-10T12:18:28.832Z,10.80
2024-02-10T12:20:55.938Z,16.33
2024-02-10T12:23:27.050Z,9.48
2024-02-10T12:25:55.287Z,11.25
2024-02-10T12:28:24.122Z,8.90
2024-02-10T12:30:51.240Z,12.40
2024-02-10T12:33:18.845Z,12.80
2024-02-10T12:35:50.476Z,9.70
2024-02-10T12:38:17.596Z,11.68
2024-02-10T12:40:45.903Z,9.57
2024-02-10T12:43:15.061Z,10.75
2024-02-10T12:45:48.825Z,11.80
2024-02-10T12:48:19.447Z,11.80
2024-02-10T12:50:48.568Z,8.88
2024-02-10T12:53:15.622Z,10.98
2024-02-10T12:55:44.006Z,9.80
2024-02-10T12:58:12.799Z,13.80
2024-02-10T13:00:42.530Z,13.57
2024-02-10T13:03:09.822Z,9.27
2024-02-10T13:05:37.199Z,10.82
2024-02-10T13:08:04.700Z,14.50
2024-02-10T13:10:31.725Z,14.77
2024-02-10T13:12:59.648Z,10.68
2024-02-10T13:15:28.104Z,9.93
2024-02-10T13:17:55.732Z,11.75
2024-02-10T13:20:23.843Z,11.52
2024-02-10T13:22:52.816Z,12.87
2024-02-10T13:25:21.425Z,11.18
2024-02-10T13:27:52.037Z,16.77
2024-02-10T13:30:19.686Z,15.48
2024-02-10T13:32:47.990Z,9.93
2024-02-10T13:35:19.784Z,11.10
2024-02-10T13:38:07.676Z,14.60
2024-02-10T13:40:56.137Z,11.00
2024-02-10T13:43:43.238Z,10.98
2024-02-10T13:46:28.914Z,13.32
2024-02-10T13:49:16.326Z,13.03
2024-02-10T13:52:01.653Z,8.95
2024-02-10T13:54:46.927Z,13.90
2024-02-10T13:57:32.279Z,13.75
2024-02-10T13:59:59.183Z,11.10
2024-02-10T14:02:26.128Z,11.67
2024-02-10T14:04:58.184Z,10.88
2024-02-10T14:07:34.831Z,14.23
2024-02-10T14:10:17.490Z,11.75
2024-02-10T14:12:51.259Z,13.77
2024-02-10T14:15:18.348Z,14.67
2024-02-10T14:17:46.237Z,14.73
2024-02-10T14:20:20.623Z,17.08
2024-02-10T14:22:48.775Z,13.05
2024-02-10T14:25:29.301Z,16.23
2024-02-10T14:28:00.155Z,17.80
2024-02-10T14:30:36.298Z,22.60
2024-02-10T14:33:04.136Z,25.27
2024-02-10T14:35:45.991Z,15.90
2024-02-10T14:38:33.216Z,15.02
2024-02-10T14:41:03.597Z,15.57
2024-02-10T14:43:31.091Z,16.45
2024-02-10T14:45:58.797Z,12.52
2024-02-10T14:48:26.149Z,13.65
2024-02-10T14:50:56.246Z,15.88
2024-02-10T14:53:35.960Z,23.60
2024-02-10T14:56:03.837Z,22.20
2024-02-10T14:58:30.804Z,16.20
2024-02-10T15:00:58.009Z,16.17
2024-02-10T15:03:25.567Z,19.60
2024-02-10T15:05:52.611Z,22.70
2024-02-10T15:08:22.161Z,25.20
2024-02-10T15:10:50.361Z,18.48
2024-02-10T15:13:17.994Z,20.05
2024-02-10T15:15:46.432Z,17.45
2024-02-10T15:18:17.403Z,15.87
2024-02-10T15:20:44.989Z,22.77
2024-02-10T15:23:14.888Z,20.02
2024-02-10T15:25:43.437Z,21.00
2024-02-10T15:28:17.024Z,16.98
2024-02-10T15:30:47.158Z,17.77
2024-02-10T15:33:17.964Z,19.23
2024-02-10T15:35:47.444Z,22.95
2024-02-10T15:38:14.975Z,20.75
2024-02-10T15:40:49.913Z,18.23
2024-02-10T15:43:17.255Z,21.33
2024-02-10T15:45:46.888Z,20.50
2024-02-10T15:48:15.850Z,24.33
2024-02-10T15:50:43.877Z,17.98
2024-02-10T15:53:11.392Z,20.90
2024-02-10T15:55:39.593Z,22.53
2024-02-10T15:58:08.263Z,22.15
2024-02-10T16:00:35.268Z,25.67
2024-02-10T16:03:03.100Z,27.50
2024-02-10T16:05:33.334Z,31.35
2024-02-10T16:08:00.526Z,27.37
2024-02-10T16:10:30.359Z,25.05
2024-02-10T16:12:57.661Z,27.13
2024-02-10T16:15:26.315Z,24.58
2024-02-10T16:17:55.352Z,31.35
2024-02-10T16:20:23.103Z,25.93
2024-02-10T16:22:52.842Z,32.65
2024-02-10T16:25:20.976Z,34.53
2024-02-10T16:27:53.836Z,29.90
2024-02-10T16:30:24.069Z,30.20
2024-02-10T16:32:52.851Z,29.93
2024-02-10T16:35:27.943Z,29.25
2024-02-10T16:37:57.837Z,29.85
2024-02-10T16:40:31.396Z,27.75
2024-02-10T16:42:58.780Z,24.45
2024-02-10T16:45:25.709Z,19.60
2024-02-10T16:47:54.746Z,19.38
2024-02-10T16:50:25.330Z,21.92
2024-02-10T16:52:52.855Z,17.48
2024-02-10T16:55:22.892Z,19.58
2024-02-10T16:57:49.936Z,25.07
2024-02-10T17:00:23.979Z,16.42
2024-02-10T17:02:59.513Z,27.52
2024-02-10T17:05:31.810Z,22.60
2024-02-10T17:08:02.212Z,25.80
2024-02-10T17:10:32.398Z,25.43
2024-02-10T17:12:59.339Z,22.30
2024-02-10T17:15:26.286Z,23.80
2024-02-10T17:17:55.042Z,24.17
2024-02-10T17:20:22.312Z,22.42
2024-02-10T17:22:53.462Z,15.63
2024-02-10T17:25:22.469Z,19.08
2024-02-10T17:27:57.583Z,22.42
2024-02-10T17:30:25.908Z,24.67
2024-02-10T17:32:53.021Z,23.92
2024-02-10T17:35:20.984Z,18.53
2024-02-10T17:37:52.192Z,17.88
2024-02-10T17:40:20.579Z,21.88
2024-02-10T17:42:48.575Z,17.80
2024-02-10T17:45:15.604Z,25.92
2024-02-10T17:47:46.309Z,20.33
2024-02-10T17:50:13.511Z,23.88
2024-02-10T17:52:40.603Z,22.08
2024-02-10T17:55:10.151Z,24.20
2024-02-10T17:57:39.029Z,24.08
2024-02-10T18:00:07.239Z,25.60
2024-02-10T18:02:34.199Z,21.60
2024-02-10T18:05:01.407Z,26.10
2024-02-10T18:07:28.685Z,23.05
2024-02-10T18:09:56.977Z,18.15
2024-02-10T18:12:23.940Z,24.27
2024-02-10T18:14:52.658Z,20.33
2024-02-10T18:17:19.678Z,19.40
2024-02-10T18:19:46.835Z,17.92
2024-02-10T18:22:14.963Z,18.48
2024-02-10T18:24:45.180Z,15.23
2024-02-10T18:27:12.131Z,19.63
2024-02-10T18:29:39.099Z,18.50
2024-02-10T18:32:09.156Z,17.73
2024-02-10T18:34:36.413Z,17.20
2024-02-10T18:37:03.668Z,16.00
2024-02-10T18:39:30.631Z,23.55
2024-02-10T18:41:57.535Z,22.00
2024-02-10T18:44:24.550Z,28.13
2024-02-10T18:46:51.625Z,25.08
2024-02-10T18:49:20.134Z,17.30
2024-02-10T18:51:47.069Z,20.25
2024-02-10T18:54:17.835Z,24.63
2024-02-10T18:56:44.814Z,22.40
2024-02-10T18:59:11.933Z,24.17
2024-02-10T19:01:39.726Z,29.77
2024-02-10T19:04:07.670Z,33.60
2024-02-10T19:06:36.422Z,36.28
2024-02-10T19:09:04.607Z,35.10
2024-02-10T19:11:32.001Z,21.42
2024-02-10T19:13:58.962Z,22.03
2024-02-10T19:16:29.386Z,23.58
2024-02-10T19:18:57.379Z,15.65
2024-02-10T19:21:24.637Z,15.75
2024-02-10T19:23:55.053Z,20.95
2024-02-10T19:26:22.020Z,16.47
2024-02-10T19:28:49.470Z,18.65
2024-02-10T19:31:18.837Z,16.17
2024-02-10T19:33:49.057Z,13.57
2024-02-10T19:36:17.354Z,16.08
2024-02-10T19:38:44.600Z,13.13
2024-02-10T19:41:18.264Z,20.13
2024-02-10T19:43:46.569Z,13.10
2024-02-10T19:46:13.848Z,17.30
2024-02-10T19:48:42.020Z,14.05
2024-02-10T19:51:14.411Z,13.87
2024-02-10T19:53:42.426Z,13.77
2024-02-10T19:56:09.790Z,24.30
2024-02-10T19:58:39.084Z,19.27
2024-02-10T20:01:06.913Z,21.08
2024-02-10T20:03:34.174Z,16.10
2024-02-10T20:06:01.471Z,14.82
2024-02-10T20:08:29.235Z,15.60
2024-02-10T20:10:57.557Z,15.90
2024-02-10T20:13:24.715Z,15.65
2024-02-10T20:15:52.971Z,13.17
2024-02-10T20:18:20.811Z,13.25
2024-02-10T20:20:48.869Z,12.95
2024-02-10T20:23:18.056Z,11.43
2024-02-10T20:25:45.043Z,20.17
2024-02-10T20:28:13.379Z,21.17
2024-02-10T20:30:42.380Z,28.40
2024-02-10T20:33:11.144Z,36.90
2024-02-10T20:35:42.847Z,49.22
2024-02-10T20:38:13.091Z,35.78
2024-02-10T20:40:41.641Z,25.67
2024-02-10T20:43:08.721Z,18.77
2024-02-10T20:45:38.500Z,20.80
2024-02-10T20:48:05.984Z,18.95
2024-02-10T20:50:35.314Z,18.48
2024-02-10T20:53:02.671Z,18.43
2024-02-10T20:55:29.906Z,16.48
2024-02-10T20:57:59.218Z,17.20
2024-02-10T21:00:26.405Z,12.77
2024-02-10T21:02:53.632Z,14.20
2024-02-10T21:05:23.467Z,16.80
2024-02-10T21:07:53.392Z,15.68
2024-02-10T21:10:20.426Z,16.58
2024-02-10T21:12:50.441Z,20.58
2024-02-10T21:15:18.152Z,22.48
2024-02-10T21:17:47.932Z,22.33
2024-02-10T21:20:16.640Z,19.05
2024-02-10T21:22:47.802Z,18.48
2024-02-10T21:25:16.721Z,19.95
2024-02-10T21:27:43.755Z,13.88
2024-02-10T21:30:12.364Z,16.63
2024-02-10T21:32:40.139Z,14.35
2024-02-10T21:35:07.858Z,16.02
2024-02-10T21:37:34.836Z,15.90
2024-02-10T21:40:01.792Z,14.00
2024-02-10T21:42:30.480Z,11.90
2024-02-10T21:44:59.189Z,15.95
2024-02-10T21:47:26.411Z,13.07
2024-02-10T21:49:53.605Z,14.27
2024-02-10T21:52:23.076Z,13.38
2024-02-10T21:54:57.012Z,10.43
2024-02-10T21:57:26.955Z,12.10
2024-02-10T21:59:55.299Z,15.32
2024-02-10T22:02:23.264Z,13.80
2024-02-10T22:04:50.211Z,10.00
2024-02-10T22:07:20.217Z,12.33
2024-02-10T22:09:47.774Z,13.00
2024-02-10T22:12:14.645Z,13.27
2024-02-10T22:14:41.578Z,12.93
2024-02-10T22:17:09.865Z,13.88
2024-02-10T22:19:36.872Z,13.33
2024-02-10T22:22:04.057Z,12.70
2024-02-10T22:24:31.074Z,12.20
2024-02-10T22:26:58.031Z,12.48
2024-02-10T22:29:26.131Z,12.55
2024-02-10T22:31:53.407Z,13.97
2024-02-10T22:34:21.973Z,12.82
2024-02-10T22:36:49.395Z,10.95
2024-02-10T22:39:16.754Z,8.52
2024-02-10T22:41:44.738Z,10.07
2024-02-10T22:44:12.196Z,12.20
2024-02-10T22:46:42.406Z,12.90
2024-02-10T22:49:10.665Z,10.43
2024-02-10T22:51:39.518Z,13.38
2024-02-10T22:54:06.991Z,11.77
2024-02-10T22:56:35.745Z,10.80
2024-02-10T22:59:02.666Z,13.00
2024-02-10T23:01:32.985Z,11.95
2024-02-10T23:04:01.238Z,11.98
2024-02-10T23:06:37.845Z,9.73
2024-02-10T23:09:13.274Z,9.40
2024-02-10T23:11:42.882Z,9.60
2024-02-10T23:14:11.283Z,8.30
2024-02-10T23:16:38.404Z,10.80
2024-02-10T23:19:11.127Z,10.40
2024-02-10T23:21:45.197Z,8.43
2024-02-10T23:24:13.592Z,8.93
2024-02-10T23:26:40.776Z,9.70
2024-02-10T23:29:07.813Z,11.57
2024-02-10T23:31:34.901Z,9.15
2024-02-10T23:34:03.188Z,10.57
2024-02-10T23:36:30.233Z,9.15
2024-02-10T23:38:59.716Z,11.65
2024-02-10T23:41:31.442Z,9.02
2024-02-10T23:43:59.529Z,11.63
2024-02-10T23:46:26.729Z,11.73
2024-02-10T23:48:56.755Z,10.55
2024-02-10T23:51:24.004Z,11.02
2024-02-10T23:53:51.339Z,9.93
2024-02-10T23:56:20.144Z,11.30
2024-02-10T23:58:50.447Z,12.27
